Time;durP1;ratioP1;P1;durP2;ratioP2;P2;SDS_P1;SDS_P2;PMS_P1;PMS_P2;Temp;Humidity;BMP_temperature;BMP_pressure;BME280_temperature;BME280_humidity;BME280_pressure;Samples;Min_cycle;Max_cycle;Signal;HPM_P1;HPM_P2
2022/09/29 00:00:11;;;;;;;11.18;8.80;;;8.90;99.90;;;;;;5018853;28;20145;-77
2022/09/29 00:02:37;;;;;;;10.98;8.32;;;8.80;99.90;;;;;;5005694;28;20369;-77
2022/09/29 00:05:04;;;;;;;25.77;8.73;;;8.70;99.90;;;;;;5025043;28;20049;-76
2022/09/29 00:07:31;;;;;;;11.73;6.50;;;8.70;99.90;;;;;;5002859;28;20048;-75
2022/09/29 00:09:57;;;;;;;11.77;6.10;;;8.70;99.90;;;;;;5022181;28;20095;-76
2022/09/29 00:12:23;;;;;;;37.55;6.97;;;8.70;99.90;;;;;;5022813;28;20041;-76
2022/09/29 00:14:48;;;;;;;13.57;6.10;;;8.70;99.90;;;;;;5020531;28;20077;-76
2022/09/29 00:17:14;;;;;;;7.03;6.18;;;8.60;99.90;;;;;;5024486;28;20563;-76
2022/09/29 00:19:40;;;;;;;7.20;6.50;;;8.50;99.90;;;;;;5008472;28;20504;-77
2022/09/29 00:22:05;;;;;;;6.85;6.15;;;8.60;99.90;;;;;;5011556;28;20076;-76
2022/09/29 00:24:31;;;;;;;11.70;7.00;;;8.60;99.90;;;;;;5022948;28;20511;-76
2022/09/29 00:26:57;;;;;;;8.93;8.02;;;8.50;99.90;;;;;;5010018;28;20239;-76
2022/09/29 00:29:23;;;;;;;9.60;7.80;;;8.50;99.90;;;;;;5022877;28;20045;-75
2022/09/29 00:31:48;;;;;;;9.60;8.18;;;8.40;99.90;;;;;;5005747;28;20049;-76
2022/09/29 00:34:14;;;;;;;9.32;8.05;;;8.50;99.90;;;;;;5028531;28;20084;-77
2022/09/29 00:36:40;;;;;;;8.70;7.80;;;8.40;99.90;;;;;;5029510;28;20064;-77
2022/09/29 00:39:06;;;;;;;9.52;7.45;;;8.40;99.90;;;;;;5023347;28;20095;-77
2022/09/29 00:41:34;;;;;;;8.80;7.47;;;8.40;99.90;;;;;;5026744;28;20053;-77
2022/09/29 00:44:02;;;;;;;8.50;7.70;;;8.40;99.90;;;;;;5026149;28;20049;-77
2022/09/29 00:46:49;;;;;;;9.57;8.27;;;8.40;99.90;;;;;;5028845;28;20045;-77
2022/09/29 00:49:22;;;;;;;8.90;8.10;;;8.40;99.90;;;;;;5010397;28;20061;-78
2022/09/29 00:52:00;;;;;;;9.50;8.52;;;8.40;99.90;;;;;;5008537;28;20852;-78
2022/09/29 00:54:29;;;;;;;9.52;8.52;;;8.30;99.90;;;;;;5027898;28;20438;-78
2022/09/29 00:56:57;;;;;;;11.10;9.30;;;8.30;99.90;;;;;;5007127;28;20049;-79
2022/09/29 00:59:30;;;;;;;9.15;8.25;;;8.30;99.90;;;;;;5016122;28;20037;-78
2022/09/29 01:01:56;;;;;;;9.02;8.13;;;8.30;99.90;;;;;;5022637;28;20075;-78
2022/09/29 01:04:22;;;;;;;9.02;8.13;;;8.20;99.90;;;;;;5029666;28;20049;-78
2022/09/29 01:06:53;;;;;;;7.90;7.10;;;8.20;99.90;;;;;;5007697;28;20048;-78
2022/09/29 01:09:26;;;;;;;8.00;7.20;;;8.20;99.90;;;;;;5026052;28;20037;-78
2022/09/29 01:11:53;;;;;;;7.38;6.68;;;8.10;99.90;;;;;;5025931;28;20103;-77
2022/09/29 01:14:20;;;;;;;;;;;8.10;99.90;;;;;;5026342;28;20087;-77
2022/09/29 01:16:46;;;;;;;8.05;7.25;;;8.00;99.90;;;;;;5007670;28;19921;-76
2022/09/29 01:19:34;;;;;;;9.30;8.40;;;8.00;99.90;;;;;;5026672;28;20048;-79
2022/09/29 01:22:24;;;;;;;9.00;8.10;;;8.00;99.90;;;;;;5010748;28;20050;-76
2022/09/29 01:25:00;;;;;;;14.20;10.30;;;8.00;99.90;;;;;;5028397;28;20605;-78
2022/09/29 01:27:45;;;;;;;12.82;9.73;;;8.00;99.90;;;;;;5025742;28;20048;-78
2022/09/29 01:30:33;;;;;;;23.40;11.55;;;7.90;99.90;;;;;;5015435;28;20045;-78
2022/09/29 01:33:20;;;;;;;18.25;11.57;;;7.90;99.90;;;;;;5016910;28;20056;-78
2022/09/29 01:36:26;;;;;;;47.05;12.95;;;7.90;99.90;;;;;;5021930;28;20049;-77
2022/09/29 01:39:21;;;;;;;20.33;10.02;;;7.80;99.90;;;;;;5007915;28;20455;-77
2022/09/29 01:41:52;;;;;;;11.25;9.98;;;7.80;99.90;;;;;;4973530;28;20061;-77
2022/09/29 01:44:32;;;;;;;11.52;8.30;;;7.70;99.90;;;;;;5018336;28;20041;-77
2022/09/29 01:47:18;;;;;;;10.40;8.02;;;7.70;99.90;;;;;;5021932;28;20172;-77
2022/09/29 01:49:50;;;;;;;10.60;8.82;;;7.70;99.90;;;;;;5022147;28;20440;-77
2022/09/29 01:52:20;;;;;;;11.10;8.98;;;7.60;99.90;;;;;;5020647;28;20056;-77
2022/09/29 01:54:55;;;;;;;8.63;7.22;;;7.70;99.90;;;;;;5019581;28;20497;-77
2022/09/29 01:57:53;;;;;;;7.95;7.13;;;7.70;99.90;;;;;;5018626;28;20103;-77
2022/09/29 02:00:22;;;;;;;8.68;7.35;;;7.70;99.90;;;;;;5017610;28;20047;-77
2022/09/29 02:03:08;;;;;;;10.05;8.43;;;7.70;99.90;;;;;;5022730;28;20038;-77
2022/09/29 02:05:41;;;;;;;48.78;9.55;;;7.70;99.90;;;;;;4998511;28;20057;-77
2022/09/29 02:08:15;;;;;;;31.33;9.20;;;7.60;99.90;;;;;;5020659;28;20592;-77
2022/09/29 02:10:48;;;;;;;38.78;9.63;;;7.60;99.90;;;;;;5001456;28;20615;-77
2022/09/29 02:13:16;;;;;;;49.95;9.63;;;7.60;99.90;;;;;;5020541;28;20052;-77
2022/09/29 02:15:47;;;;;;;35.15;9.85;;;7.50;99.90;;;;;;5022028;28;20092;-78
2022/09/29 02:18:18;;;;;;;11.23;7.57;;;7.40;99.90;;;;;;5020165;28;20074;-78
2022/09/29 02:20:46;;;;;;;9.77;7.10;;;7.40;99.90;;;;;;5019643;28;20044;-78
2022/09/29 02:23:12;;;;;;;11.10;8.05;;;7.30;99.90;;;;;;5000928;28;20044;-76
2022/09/29 02:25:39;;;;;;;13.15;8.30;;;7.20;99.90;;;;;;5021087;28;20045;-78
2022/09/29 02:28:06;;;;;;;11.73;7.07;;;7.20;99.90;;;;;;5019991;28;20534;-78
2022/09/29 02:30:33;;;;;;;8.32;7.40;;;7.20;99.90;;;;;;5020943;28;20076;-78
2022/09/29 02:32:59;;;;;;;8.77;7.28;;;7.10;99.90;;;;;;5018130;28;20239;-78
2022/09/29 02:35:34;;;;;;;9.82;7.78;;;7.10;99.90;;;;;;5017665;28;20582;-78
2022/09/29 02:38:08;;;;;;;9.35;7.63;;;7.10;99.90;;;;;;5020560;28;20033;-78
2022/09/29 02:40:41;;;;;;;9.73;8.70;;;7.10;99.90;;;;;;5002079;28;20060;-78
2022/09/29 02:43:25;;;;;;;10.25;9.15;;;7.00;99.90;;;;;;5023084;28;20065;-78
2022/09/29 02:46:21;;;;;;;12.40;10.90;;;7.00;99.90;;;;;;5021906;28;20065;-78
2022/09/29 02:49:15;;;;;;;13.68;12.27;;;7.10;99.90;;;;;;5017344;28;20436;-77
2022/09/29 02:51:52;;;;;;;11.77;10.55;;;7.10;99.90;;;;;;5019680;28;20121;-76
2022/09/29 02:54:48;;;;;;;11.98;9.68;;;7.20;99.90;;;;;;5019804;28;20037;-76
2022/09/29 02:57:38;;;;;;;12.48;10.30;;;7.20;99.90;;;;;;5020839;28;20051;-76
2022/09/29 03:00:10;;;;;;;20.33;10.40;;;7.20;99.90;;;;;;5020776;28;20049;-77
2022/09/29 03:02:37;;;;;;;15.68;10.60;;;7.20;99.90;;;;;;5000611;28;20081;-77
2022/09/29 03:05:06;;;;;;;17.13;10.70;;;7.20;99.90;;;;;;5020030;28;20049;-77
2022/09/29 03:07:32;;;;;;;16.25;10.15;;;7.10;99.90;;;;;;5017241;28;20056;-77
2022/09/29 03:09:58;;;;;;;16.02;9.52;;;7.00;99.90;;;;;;5018152;28;20554;-77
2022/09/29 03:12:24;;;;;;;22.10;10.40;;;7.00;99.90;;;;;;5019499;28;20073;-77
2022/09/29 03:14:50;;;;;;;14.55;10.40;;;7.00;99.90;;;;;;5017758;28;20992;-77
2022/09/29 03:17:16;;;;;;;20.65;12.27;;;6.90;99.90;;;;;;5020520;28;20080;-77
2022/09/29 03:19:44;;;;;;;18.33;12.82;;;6.90;99.90;;;;;;5019320;28;20068;-77
2022/09/29 03:22:10;;;;;;;19.10;13.93;;;6.90;99.90;;;;;;5019644;28;20065;-76
2022/09/29 03:24:41;;;;;;;18.88;14.57;;;6.90;99.90;;;;;;5016754;28;20053;-76
2022/09/29 03:27:10;;;;;;;19.83;14.93;;;6.90;99.90;;;;;;5015568;28;20045;-76
2022/09/29 03:29:37;;;;;;;21.08;15.00;;;6.90;99.90;;;;;;5021279;28;21987;-76
2022/09/29 03:32:04;;;;;;;44.25;15.80;;;6.90;99.90;;;;;;5030330;28;20172;-75
2022/09/29 03:34:30;;;;;;;45.50;14.98;;;6.90;99.90;;;;;;5021521;28;20697;-75
2022/09/29 03:36:56;;;;;;;34.92;14.98;;;6.90;99.90;;;;;;5004740;28;20045;-75
2022/09/29 03:39:23;;;;;;;32.28;13.23;;;6.80;99.90;;;;;;5018920;28;20147;-75
2022/09/29 03:41:49;;;;;;;26.85;11.35;;;6.80;99.90;;;;;;5018896;28;20599;-75
2022/09/29 03:44:15;;;;;;;23.33;10.38;;;6.80;99.90;;;;;;5001651;28;20038;-76
2022/09/29 03:46:41;;;;;;;13.57;9.82;;;6.80;99.90;;;;;;5018373;28;20409;-76
2022/09/29 03:49:09;;;;;;;11.77;10.68;;;6.80;99.90;;;;;;5001226;28;20049;-76
2022/09/29 03:51:35;;;;;;;11.52;10.38;;;6.70;99.90;;;;;;5018538;28;20077;-75
2022/09/29 03:54:01;;;;;;;12.45;9.98;;;6.70;99.90;;;;;;5015098;28;20070;-75
2022/09/29 03:56:26;;;;;;;13.15;10.75;;;6.80;99.90;;;;;;5020248;28;20095;-76
2022/09/29 03:58:52;;;;;;;12.65;11.18;;;6.80;99.90;;;;;;5019552;28;20057;-76
2022/09/29 04:01:18;;;;;;;13.63;10.68;;;6.80;99.90;;;;;;5015695;28;20048;-75
2022/09/29 04:03:43;;;;;;;12.77;11.30;;;6.90;99.90;;;;;;5018707;28;20045;-77
2022/09/29 04:06:09;;;;;;;20.77;11.43;;;6.80;99.90;;;;;;5015549;28;20065;-77
2022/09/29 04:08:36;;;;;;;22.42;10.38;;;6.80;99.90;;;;;;5021355;28;20049;-77
2022/09/29 04:11:02;;;;;;;33.83;11.35;;;6.70;99.90;;;;;;5016904;28;20457;-77
2022/09/29 04:13:27;;;;;;;11.25;10.13;;;6.60;99.90;;;;;;4999538;28;20136;-77
2022/09/29 04:15:58;;;;;;;25.95;11.52;;;6.60;99.90;;;;;;5017042;28;20171;-77
2022/09/29 04:18:23;;;;;;;36.85;12.38;;;6.60;99.90;;;;;;5021425;28;20044;-76
2022/09/29 04:20:49;;;;;;;42.13;12.10;;;6.60;99.90;;;;;;5015887;28;20397;-77
2022/09/29 04:23:15;;;;;;;49.28;12.05;;;6.60;99.90;;;;;;5002095;28;20045;-77
2022/09/29 04:25:44;;;;;;;25.42;11.65;;;6.50;99.90;;;;;;5022940;28;20051;-76
2022/09/29 04:28:10;;;;;;;42.33;11.50;;;6.60;99.90;;;;;;5022915;28;20048;-76
2022/09/29 04:30:36;;;;;;;13.85;10.52;;;6.60;99.90;;;;;;5020989;28;20037;-76
2022/09/29 04:33:01;;;;;;;16.88;10.32;;;6.60;99.90;;;;;;5019839;28;20033;-76
2022/09/29 04:35:27;;;;;;;11.63;10.15;;;6.50;99.90;;;;;;5005479;28;20045;-76
2022/09/29 04:37:56;;;;;;;17.77;10.70;;;6.50;99.90;;;;;;5023325;28;20103;-76
2022/09/29 04:40:23;;;;;;;16.02;10.50;;;6.50;99.90;;;;;;5018786;28;20558;-76
2022/09/29 04:42:49;;;;;;;17.08;10.75;;;6.50;99.90;;;;;;5020456;28;20108;-76
2022/09/29 04:45:14;;;;;;;12.52;10.65;;;6.50;99.90;;;;;;5023113;28;21195;-76
2022/09/29 04:47:40;;;;;;;17.13;10.43;;;6.50;99.90;;;;;;5023631;28;20052;-76
2022/09/29 04:50:06;;;;;;;13.63;10.85;;;6.50;99.90;;;;;;5023519;28;20052;-75
2022/09/29 04:52:32;;;;;;;17.65;11.10;;;6.50;99.90;;;;;;5024091;28;20041;-75
2022/09/29 04:54:58;;;;;;;37.97;10.95;;;6.50;99.90;;;;;;5020191;28;20515;-75
2022/09/29 04:57:24;;;;;;;11.55;10.40;;;6.50;99.90;;;;;;5017072;28;20042;-75
2022/09/29 04:59:50;;;;;;;12.95;11.43;;;6.40;99.90;;;;;;5021373;28;20555;-75
2022/09/29 05:02:20;;;;;;;20.38;11.70;;;6.40;99.90;;;;;;5007707;28;20065;-75
2022/09/29 05:04:46;;;;;;;22.58;11.88;;;6.40;99.90;;;;;;5021402;28;20041;-75
2022/09/29 05:07:13;;;;;;;16.63;12.35;;;6.40;99.90;;;;;;5022543;28;20412;-76
2022/09/29 05:09:38;;;;;;;37.58;13.23;;;6.40;99.90;;;;;;5018498;28;20560;-75
2022/09/29 05:12:04;;;;;;;109.50;14.88;;;6.40;99.90;;;;;;5021986;28;20109;-76
2022/09/29 05:14:30;;;;;;;148.70;15.88;;;6.40;99.90;;;;;;5019745;28;20468;-76
2022/09/29 05:16:56;;;;;;;65.93;14.07;;;6.40;99.90;;;;;;5018524;28;20038;-76
2022/09/29 05:19:22;;;;;;;70.57;13.23;;;6.40;99.90;;;;;;5023309;28;20412;-76
2022/09/29 05:21:48;;;;;;;29.85;11.02;;;6.50;99.90;;;;;;5020040;28;20034;-76
2022/09/29 05:24:15;;;;;;;27.63;12.68;;;6.40;99.90;;;;;;5016312;28;20552;-75
2022/09/29 05:26:40;;;;;;;65.78;13.32;;;6.40;99.90;;;;;;5018170;28;20167;-76
2022/09/29 05:29:06;;;;;;;20.10;10.95;;;6.50;99.90;;;;;;5020452;28;20124;-74
2022/09/29 05:31:32;;;;;;;26.40;12.02;;;6.50;99.90;;;;;;5005407;28;20046;-75
2022/09/29 05:33:58;;;;;;;35.03;12.23;;;6.50;99.90;;;;;;5024884;28;20065;-74
2022/09/29 05:36:24;;;;;;;55.08;15.23;;;6.50;99.90;;;;;;5021775;28;20467;-78
2022/09/29 05:38:50;;;;;;;84.65;14.70;;;6.60;99.90;;;;;;5019346;28;20594;-77
2022/09/29 05:41:22;;;;;;;54.85;13.73;;;6.60;99.90;;;;;;5026501;28;20046;-77
2022/09/29 05:43:49;;;;;;;38.20;12.23;;;6.50;99.90;;;;;;5020760;28;20111;-76
2022/09/29 05:46:15;;;;;;;;;;;6.50;99.90;;;;;;5017698;28;20037;-76
2022/09/29 05:48:45;;;;;;;29.15;14.98;;;6.50;99.90;;;;;;5023593;28;20315;-77
2022/09/29 05:51:13;;;;;;;113.07;19.50;;;6.50;99.90;;;;;;5022275;28;20049;-77
2022/09/29 05:53:39;;;;;;;66.45;24.27;;;6.60;99.90;;;;;;5019190;28;20045;-73
2022/09/29 05:56:10;;;;;;;66.95;24.20;;;6.60;99.90;;;;;;5021732;28;20037;-75
2022/09/29 05:58:37;;;;;;;63.22;24.73;;;6.70;99.90;;;;;;5004393;28;20046;-75
2022/09/29 06:01:07;;;;;;;37.63;21.85;;;6.70;99.90;;;;;;5020477;28;20620;-74
2022/09/29 06:03:37;;;;;;;56.50;21.95;;;6.70;99.90;;;;;;5003103;28;20073;-74
2022/09/29 06:06:15;;;;;;;43.80;19.83;;;6.80;99.90;;;;;;5002248;28;20464;-74
2022/09/29 06:08:41;;;;;;;89.10;20.80;;;6.80;99.90;;;;;;5015656;28;20088;-74
2022/09/29 06:11:14;;;;;;;37.78;17.15;;;6.80;99.90;;;;;;5001677;28;20106;-74
2022/09/29 06:13:42;;;;;;;43.33;17.38;;;6.80;99.90;;;;;;5021438;28;20080;-73
2022/09/29 06:16:09;;;;;;;26.65;15.52;;;6.80;99.90;;;;;;5020063;28;20504;-74
2022/09/29 06:18:35;;;;;;;37.67;16.05;;;6.80;99.90;;;;;;5021232;28;20041;-74
2022/09/29 06:21:02;;;;;;;46.58;14.95;;;6.80;99.90;;;;;;5024409;28;20072;-74
2022/09/29 06:23:28;;;;;;;41.53;15.60;;;6.80;99.90;;;;;;5003035;28;20041;-76
2022/09/29 06:26:03;;;;;;;22.33;14.35;;;6.80;99.90;;;;;;5025907;28;20134;-75
2022/09/29 06:28:29;;;;;;;22.75;14.13;;;6.80;99.90;;;;;;5004585;28;20037;-76
2022/09/29 06:30:59;;;;;;;20.98;16.08;;;6.80;99.90;;;;;;5024496;28;20053;-76
2022/09/29 06:33:26;;;;;;;32.65;15.27;;;6.80;99.90;;;;;;5021982;28;20047;-77
2022/09/29 06:38:36;;;;;;;40.03;14.70;;;6.80;99.90;;;;;;4998024;28;22068;-75
2022/09/29 06:41:02;;;;;;;48.63;14.15;;;6.80;99.90;;;;;;5015577;28;20041;-76
2022/09/29 06:43:31;;;;;;;29.08;14.38;;;6.80;99.90;;;;;;5003180;28;20102;-82
2022/09/29 06:45:56;;;;;;;23.48;14.70;;;6.80;99.90;;;;;;5020929;28;20141;-73
2022/09/29 06:48:22;;;;;;;19.13;15.60;;;6.80;99.90;;;;;;5021728;28;20455;-83
2022/09/29 06:50:48;;;;;;;22.90;14.77;;;6.80;99.90;;;;;;4982973;28;20477;-77
2022/09/29 06:53:14;;;;;;;29.05;16.92;;;6.80;99.90;;;;;;5023248;28;20072;-76
2022/09/29 06:55:39;;;;;;;29.13;16.35;;;6.90;99.90;;;;;;5021856;28;20036;-76
2022/09/29 06:58:05;;;;;;;31.42;16.05;;;6.90;99.90;;;;;;5024070;28;20116;-77
2022/09/29 07:00:32;;;;;;;21.27;15.63;;;6.90;99.90;;;;;;5005600;28;20063;-77
2022/09/29 07:02:57;;;;;;;45.07;18.80;;;7.00;99.90;;;;;;5026572;28;20041;-78
2022/09/29 07:05:23;;;;;;;26.17;16.90;;;7.00;99.90;;;;;;5024662;28;20495;-79
2022/09/29 07:07:49;;;;;;;38.25;19.45;;;7.00;99.90;;;;;;5005370;28;20739;-78
2022/09/29 07:10:14;;;;;;;33.60;19.23;;;7.10;99.90;;;;;;5023384;28;20125;-78
2022/09/29 07:12:43;;;;;;;54.05;21.77;;;7.10;99.90;;;;;;5024091;28;20046;-80
2022/09/29 07:15:09;;;;;;;33.65;23.17;;;7.20;99.90;;;;;;5027196;28;20128;-79
2022/09/29 07:17:34;;;;;;;48.92;24.60;;;7.20;99.90;;;;;;5008538;28;20129;-76
2022/09/29 07:20:00;;;;;;;47.60;23.50;;;7.30;99.90;;;;;;5003261;28;20403;-80
2022/09/29 07:22:26;;;;;;;42.13;25.95;;;7.40;99.90;;;;;;5016891;28;20061;-78
2022/09/29 07:24:53;;;;;;;30.02;24.75;;;7.40;99.90;;;;;;5007645;28;20775;-82
2022/09/29 07:27:22;;;;;;;40.97;27.05;;;7.50;99.90;;;;;;5006751;28;20142;-79
2022/09/29 07:29:49;;;;;;;39.45;26.73;;;7.50;99.90;;;;;;5024194;28;20042;-73
2022/09/29 07:32:15;;;;;;;45.55;25.40;;;7.60;99.90;;;;;;5022688;28;20558;-76
2022/09/29 07:34:40;;;;;;;25.50;23.00;;;7.70;99.90;;;;;;5006000;28;20137;-75
2022/09/29 07:37:06;;;;;;;30.25;23.60;;;7.70;99.90;;;;;;5022493;28;20195;-79
2022/09/29 07:39:31;;;;;;;24.02;21.60;;;7.70;99.90;;;;;;5023211;28;20512;-78
2022/09/29 07:41:57;;;;;;;26.60;23.85;;;7.80;99.90;;;;;;5005263;28;20058;-78
2022/09/29 07:44:23;;;;;;;32.13;24.45;;;7.90;99.90;;;;;;5005422;28;20052;-78
2022/09/29 07:46:49;;;;;;;25.02;22.45;;;8.00;99.90;;;;;;5006595;28;20104;-76
2022/09/29 07:49:15;;;;;;;27.13;23.73;;;8.00;99.90;;;;;;5027589;28;20401;-77
2022/09/29 07:51:40;;;;;;;33.65;28.52;;;8.00;99.90;;;;;;5019630;28;20076;-77
2022/09/29 07:54:06;;;;;;;37.92;30.63;;;8.10;99.90;;;;;;5023004;28;20056;-77
2022/09/29 07:56:32;;;;;;;45.22;38.35;;;8.20;99.90;;;;;;5027837;28;20072;-76
2022/09/29 07:58:58;;;;;;;49.08;38.70;;;8.10;99.90;;;;;;5028578;28;20542;-78
2022/09/29 08:01:24;;;;;;;50.50;35.33;;;8.20;99.90;;;;;;5029505;28;20089;-73
2022/09/29 08:26:03;;;;;;;23.98;20.48;;;14.60;99.90;;;;;;5125826;27;20390;-78
2022/09/29 08:28:33;;;;;;;24.70;22.02;;;14.00;99.90;;;;;;5126765;27;20047;-77
2022/09/29 08:31:23;;;;;;;24.80;21.45;;;13.00;99.90;;;;;;5126931;27;20039;-76
2022/09/29 08:33:50;;;;;;;25.55;22.75;;;12.30;99.90;;;;;;5124392;27;20090;-75
2022/09/29 08:36:17;;;;;;;29.73;26.27;;;11.70;99.90;;;;;;5118723;27;20051;-76
2022/09/29 08:38:47;;;;;;;;;;;11.20;99.90;;;;;;5127966;27;20127;-76
2022/09/29 08:41:32;;;;;;;33.63;28.30;;;10.80;99.90;;;;;;5124241;27;19998;-80
2022/09/29 08:44:27;;;;;;;32.47;27.15;;;10.60;99.90;;;;;;5125495;27;20054;-78
2022/09/29 08:47:05;;;;;;;37.47;29.90;;;10.40;99.90;;;;;;5124345;27;20059;-76
2022/09/29 08:49:34;;;;;;;42.10;32.88;;;10.20;99.90;;;;;;5117345;27;20046;-76
2022/09/29 08:52:12;;;;;;;41.65;32.03;;;10.20;99.90;;;;;;5123928;27;20040;-71
2022/09/29 08:54:43;;;;;;;39.95;31.67;;;10.10;99.90;;;;;;5107425;27;20052;-77
2022/09/29 08:57:17;;;;;;;48.58;37.67;;;10.10;99.90;;;;;;5122766;27;20031;-73
2022/09/29 08:59:51;;;;;;;50.42;38.22;;;10.10;99.90;;;;;;5112108;27;20035;-75
2022/09/29 09:02:53;;;;;;;60.97;45.75;;;10.10;99.90;;;;;;5111910;27;20043;-77
2022/09/29 09:05:45;;;;;;;67.93;50.33;;;10.10;99.90;;;;;;5115954;27;20492;-76
2022/09/29 09:08:48;;;;;;;69.50;49.17;;;10.10;99.90;;;;;;5114072;27;20505;-77
2022/09/29 09:11:30;;;;;;;59.13;44.90;;;10.10;99.90;;;;;;5124727;27;20040;-78
2022/09/29 09:14:20;;;;;;;53.13;41.25;;;10.10;99.90;;;;;;5109211;27;20048;-74
2022/09/29 09:17:04;;;;;;;52.58;40.30;;;10.10;99.90;;;;;;5108084;27;20075;-74
2022/09/29 09:19:50;;;;;;;55.38;40.33;;;10.10;99.90;;;;;;5111760;28;20046;-75
2022/09/29 09:22:55;;;;;;;57.60;40.75;;;10.10;99.90;;;;;;5110080;28;20395;-75
2022/09/29 09:25:37;;;;;;;53.50;40.40;;;10.20;99.90;;;;;;5122351;27;20063;-72
2022/09/29 09:28:15;;;;;;;52.72;41.45;;;10.30;99.90;;;;;;5121304;27;20052;-75
2022/09/29 09:30:50;;;;;;;57.80;44.95;;;10.40;99.90;;;;;;5108543;28;20044;-78
2022/09/29 09:33:31;;;;;;;60.80;47.90;;;10.50;99.90;;;;;;5113142;27;20068;-74
2022/09/29 09:36:04;;;;;;;62.75;46.30;;;10.60;99.90;;;;;;5099371;27;20048;-73
2022/09/29 09:39:00;;;;;;;56.08;43.33;;;10.60;99.90;;;;;;5107578;27;20494;-73
2022/09/29 09:41:27;;;;;;;49.72;40.70;;;10.60;99.90;;;;;;5097492;27;20036;-74
2022/09/29 09:44:04;;;;;;;50.13;41.08;;;10.60;99.90;;;;;;5103710;27;20386;-73
2022/09/29 09:46:49;;;;;;;45.38;38.97;;;10.60;99.90;;;;;;5100145;28;20075;-72
2022/09/29 09:49:39;;;;;;;48.97;41.45;;;10.70;99.90;;;;;;5097820;28;20051;-73
2022/09/29 09:52:14;;;;;;;49.75;43.28;;;10.70;99.90;;;;;;5096093;27;20551;-72
2022/09/29 09:54:52;;;;;;;45.03;40.20;;;10.80;99.90;;;;;;5100753;27;20129;-71
2022/09/29 09:57:54;;;;;;;72.30;47.15;;;10.80;99.90;;;;;;5107609;27;20051;-71
2022/09/29 10:00:27;;;;;;;47.35;42.05;;;10.90;99.90;;;;;;5091945;28;20040;-70
2022/09/29 10:02:55;;;;;;;46.42;41.33;;;10.90;99.90;;;;;;5105161;27;20048;-70
2022/09/29 10:05:25;;;;;;;54.40;45.45;;;11.00;99.90;;;;;;5103303;27;20044;-70
2022/09/29 10:07:52;;;;;;;47.03;42.00;;;11.10;99.90;;;;;;5094435;27;20040;-72
2022/09/29 10:10:23;;;;;;;46.67;41.58;;;11.10;99.90;;;;;;5092829;27;20039;-70
2022/09/29 10:13:00;;;;;;;43.08;38.38;;;11.20;99.90;;;;;;5091077;28;20043;-73
2022/09/29 10:15:37;;;;;;;43.80;38.13;;;11.30;99.90;;;;;;5109071;27;20047;-72
2022/09/29 10:18:16;;;;;;;41.70;37.20;;;11.40;99.90;;;;;;5099943;27;20048;-69
2022/09/29 10:20:45;;;;;;;22.95;20.65;;;11.50;99.90;;;;;;5095591;28;20052;-70
2022/09/29 10:23:25;;;;;;;22.60;20.20;;;11.60;99.90;;;;;;5096947;27;20043;-69
2022/09/29 10:25:59;;;;;;;22.50;18.35;;;11.70;99.90;;;;;;5101378;28;20054;-70
2022/09/29 10:28:30;;;;;;;20.65;16.75;;;11.70;99.90;;;;;;5101448;28;20482;-69
2022/09/29 10:30:56;;;;;;;16.08;14.30;;;11.80;99.90;;;;;;5100529;27;20042;-70
2022/09/29 10:33:24;;;;;;;15.85;14.15;;;11.80;99.90;;;;;;5092861;27;20115;-74
2022/09/29 10:36:05;;;;;;;15.25;13.00;;;11.90;99.90;;;;;;5098292;27;20394;-72
2022/09/29 10:38:31;;;;;;;16.15;13.30;;;12.10;99.90;;;;;;5104265;28;20045;-73
2022/09/29 10:41:01;;;;;;;13.52;10.73;;;12.10;99.90;;;;;;5099952;28;20036;-72
2022/09/29 10:43:39;;;;;;;12.07;10.70;;;12.20;99.90;;;;;;5108601;28;20123;-73
2022/09/29 10:46:35;;;;;;;11.10;9.90;;;12.20;99.90;;;;;;5096858;27;20050;-71
2022/09/29 10:49:21;;;;;;;15.67;11.90;;;12.30;99.90;;;;;;5100835;28;20040;-73
2022/09/29 10:51:52;;;;;;;11.85;10.65;;;12.30;99.90;;;;;;5109082;28;20289;-72
2022/09/29 10:54:17;;;;;;;15.07;11.63;;;12.40;99.90;;;;;;5105586;28;20063;-72
2022/09/29 10:56:48;;;;;;;12.25;10.82;;;12.40;99.90;;;;;;5099395;28;20040;-73
2022/09/29 10:59:16;;;;;;;9.95;8.98;;;12.50;99.90;;;;;;5101873;28;20036;-73
2022/09/29 11:01:53;;;;;;;10.07;9.05;;;12.60;99.90;;;;;;5107356;28;20513;-73
2022/09/29 11:04:32;;;;;;;12.32;8.88;;;12.60;99.90;;;;;;5118001;27;20510;-71
2022/09/29 11:07:11;;;;;;;9.05;7.40;;;12.70;99.90;;;;;;5117210;27;20050;-71
2022/09/29 11:09:39;;;;;;;9.43;8.25;;;12.70;99.90;;;;;;5104942;28;20040;-71
2022/09/29 11:12:22;;;;;;;12.13;9.90;;;12.80;99.90;;;;;;5106467;27;20044;-72
2022/09/29 11:14:48;;;;;;;11.85;8.40;;;12.80;99.90;;;;;;5107625;28;20053;-72
2022/09/29 11:17:27;;;;;;;11.48;8.57;;;12.90;99.90;;;;;;5107849;28;20282;-72
2022/09/29 11:20:00;;;;;;;11.32;10.13;;;13.00;99.90;;;;;;5107891;28;20043;-73
2022/09/29 11:22:53;;;;;;;11.07;9.82;;;13.10;99.90;;;;;;5093451;28;20027;-73
2022/09/29 11:25:55;;;;;;;13.98;10.32;;;13.20;99.90;;;;;;5098164;28;20137;-73
2022/09/29 11:28:36;;;;;;;13.02;9.48;;;13.20;99.90;;;;;;5094881;27;20490;-74
2022/09/29 11:31:17;;;;;;;11.02;9.07;;;13.30;99.90;;;;;;5096636;27;20063;-73
2022/09/29 11:33:45;;;;;;;11.40;10.10;;;13.40;99.90;;;;;;5097050;28;20051;-74
2022/09/29 11:36:35;;;;;;;12.95;9.40;;;13.40;99.90;;;;;;5089897;28;20044;-73
2022/09/29 11:39:19;;;;;;;9.98;8.13;;;13.40;99.90;;;;;;5100349;28;20686;-73
2022/09/29 11:42:08;;;;;;;9.07;8.18;;;13.50;99.90;;;;;;5094216;28;20058;-73
2022/09/29 11:44:40;;;;;;;9.55;8.65;;;13.60;99.90;;;;;;5107922;28;20415;-74
2022/09/29 11:47:08;;;;;;;11.27;9.65;;;13.60;99.90;;;;;;5105099;28;20459;-74
2022/09/29 11:50:12;;;;;;;10.23;8.48;;;13.70;99.90;;;;;;5103319;28;20206;-73
2022/09/29 11:52:59;;;;;;;10.05;8.50;;;13.70;99.90;;;;;;5092250;28;20051;-73
2022/09/29 11:55:32;;;;;;;8.27;6.40;;;13.90;99.90;;;;;;5089596;28;20101;-74
2022/09/29 11:58:22;;;;;;;10.10;9.10;;;13.90;99.90;;;;;;5099930;28;20437;-72
2022/09/29 12:01:02;;;;;;;9.60;8.60;;;13.90;99.90;;;;;;5095316;28;20139;-72
2022/09/29 12:03:45;;;;;;;10.10;7.63;;;14.00;99.90;;;;;;5095721;28;20036;-77
2022/09/29 12:06:46;;;;;;;9.60;8.63;;;14.00;99.90;;;;;;5095075;27;20035;-72
2022/09/29 12:09:44;;;;;;;10.40;9.40;;;14.10;99.90;;;;;;5096138;28;20109;-77
2022/09/29 12:12:16;;;;;;;9.88;8.88;;;14.10;99.90;;;;;;5105866;28;20205;-73
2022/09/29 12:14:59;;;;;;;12.93;8.98;;;14.00;99.90;;;;;;5103662;28;20475;-74
2022/09/29 12:17:30;;;;;;;20.60;14.30;;;14.10;99.90;;;;;;5095716;28;20406;-71
2022/09/29 12:20:22;;;;;;;12.35;10.52;;;14.10;99.90;;;;;;5108456;28;20048;-72
2022/09/29 12:22:49;;;;;;;11.88;10.63;;;14.30;99.90;;;;;;5108166;28;20055;-74
2022/09/29 12:25:18;;;;;;;11.23;10.05;;;14.30;99.90;;;;;;5121524;28;20062;-72
2022/09/29 12:27:47;;;;;;;11.57;10.38;;;14.40;99.90;;;;;;5098416;28;20048;-73
2022/09/29 12:30:23;;;;;;;10.45;9.35;;;14.40;99.90;;;;;;5106126;28;20545;-73
2022/09/29 12:32:56;;;;;;;10.32;9.32;;;14.50;99.90;;;;;;5100313;28;20081;-73
2022/09/29 12:35:31;;;;;;;9.35;8.40;;;14.50;99.90;;;;;;5097065;28;20709;-72
2022/09/29 12:38:14;;;;;;;10.98;9.35;;;14.50;99.90;;;;;;5091603;28;20039;-71
2022/09/29 12:41:13;;;;;;;10.48;9.38;;;14.50;99.90;;;;;;5106865;28;20040;-74
2022/09/29 12:43:54;;;;;;;12.32;11.07;;;14.50;99.90;;;;;;5095058;28;20071;-72
2022/09/29 12:46:38;;;;;;;12.25;10.52;;;14.50;99.90;;;;;;5096422;28;20054;-72
2022/09/29 12:49:42;;;;;;;9.80;8.48;;;14.50;99.90;;;;;;5098301;28;20032;-73
2022/09/29 12:52:19;;;;;;;9.05;7.90;;;14.60;99.90;;;;;;5086549;27;20074;-78
2022/09/29 12:54:51;;;;;;;;;;;14.70;99.90;;;;;;5098881;28;20091;-77
2022/09/29 12:57:23;;;;;;;9.30;8.40;;;14.70;99.90;;;;;;5096742;28;20423;-74
2022/09/29 13:00:23;;;;;;;9.77;7.50;;;14.80;99.90;;;;;;5101179;28;20668;-75
2022/09/29 13:03:04;;;;;;;7.35;6.07;;;14.80;99.90;;;;;;5090742;28;20139;-77
2022/09/29 13:05:48;;;;;;;7.18;5.10;;;14.90;99.90;;;;;;5093890;28;20043;-77
2022/09/29 13:08:39;;;;;;;7.25;5.75;;;14.90;99.90;;;;;;5092295;28;20036;-77
2022/09/29 13:11:36;;;;;;;6.78;6.00;;;14.80;99.90;;;;;;5089704;28;20047;-75
2022/09/29 13:14:24;;;;;;;6.80;5.10;;;14.90;99.90;;;;;;5096952;28;20123;-77
2022/09/29 13:17:11;;;;;;;7.95;6.07;;;14.90;99.90;;;;;;5098267;28;20029;-77
2022/09/29 13:19:45;;;;;;;5.68;5.07;;;14.90;99.90;;;;;;5124236;27;20040;-75
2022/09/29 13:22:13;;;;;;;6.05;4.57;;;14.90;99.90;;;;;;5092825;27;20043;-75
2022/09/29 13:25:15;;;;;;;4.57;3.83;;;15.00;99.90;;;;;;5110378;27;20073;-74
2022/09/29 13:27:47;;;;;;;6.35;5.35;;;15.00;99.90;;;;;;5124669;27;20125;-79
2022/09/29 13:30:15;;;;;;;7.68;5.30;;;15.00;99.90;;;;;;5110394;28;20036;-74
2022/09/29 13:32:48;;;;;;;10.57;7.38;;;15.10;99.90;;;;;;5100926;27;20051;-75
2022/09/29 13:35:23;;;;;;;9.50;8.50;;;15.10;99.90;;;;;;5106773;28;20420;-78